Time;durP1;ratioP1;P1;durP2;ratioP2;P2;SDS_P1;SDS_P2;PMS_P1;PMS_P2;Temp;Humidity;BMP_temperature;BMP_pressure;BME280_temperature;BME280_humidity;BME280_pressure;Samples;Min_cycle;Max_cycle;Signal;HPM_P1;HPM_P2
2023/05/21 00:00:14;;;;;;;37.17;33.58;;;;;;;15.88;77.56;100712.16;4957445;28;96990;-78
2023/05/21 00:02:39;;;;;;;36.75;33.47;;;;;;;16.02;77.04;100724.69;4954222;28;97985;-78
2023/05/21 00:05:08;;;;;;;37.20;33.50;;;;;;;16.02;76.63;100688.47;4955509;28;98162;-78
2023/05/21 00:07:34;;;;;;;36.72;33.13;;;;;;;16.21;76.17;100717.53;4957335;28;96905;-78
2023/05/21 00:09:59;;;;;;;34.80;31.80;;;;;;;16.17;75.99;100718.63;4973899;28;96991;-78
2023/05/21 00:12:25;;;;;;;34.08;31.02;;;;;;;16.17;75.45;100708.03;4973861;28;97488;-78
2023/05/21 00:14:50;;;;;;;35.42;31.80;;;;;;;16.10;75.36;100713.72;4956912;28;97387;-78
2023/05/21 00:17:16;;;;;;;34.67;31.40;;;;;;;16.10;75.09;100684.59;4960086;28;96773;-77
2023/05/21 00:19:42;;;;;;;35.97;32.47;;;;;;;16.02;74.84;100682.34;4956826;28;97065;-77
2023/05/21 00:22:08;;;;;;;34.88;31.55;;;;;;;16.31;74.78;100704.69;4956977;28;100241;-78
2023/05/21 00:24:33;;;;;;;36.10;32.58;;;;;;;16.25;74.50;100707.66;4957281;28;97748;-77
2023/05/21 00:26:59;;;;;;;34.58;31.55;;;;;;;16.21;74.38;100695.50;4973845;28;97217;-79
2023/05/21 00:29:26;;;;;;;34.95;31.42;;;;;;;16.23;74.23;100702.44;4939140;28;97044;-77
2023/05/21 00:31:52;;;;;;;32.58;29.55;;;;;;;16.26;73.94;100702.28;4956658;28;101555;-78
2023/05/21 00:34:18;;;;;;;34.70;31.63;;;;;;;16.27;74.27;100701.34;4939173;28;101168;-77
2023/05/21 00:36:44;;;;;;;33.70;30.77;;;;;;;16.28;73.99;100708.34;4957114;28;98058;-79
2023/05/21 00:39:13;;;;;;;33.13;29.65;;;;;;;16.29;73.98;100699.47;4940436;28;97288;-77
2023/05/21 00:41:39;;;;;;;32.90;29.75;;;;;;;16.32;73.85;100701.13;4940602;28;101486;-78
2023/05/21 00:44:05;;;;;;;33.30;29.77;;;;;;;16.25;73.49;100708.50;4936868;28;100866;-78
2023/05/21 00:46:31;;;;;;;32.08;29.27;;;;;;;16.28;73.61;100710.97;4955218;28;96855;-79
2023/05/21 00:48:57;;;;;;;33.25;30.35;;;;;;;16.13;73.72;100708.28;4965194;28;96974;-78
2023/05/21 00:51:23;;;;;;;34.03;30.92;;;;;;;16.18;73.54;100709.75;4968726;28;97918;-78
2023/05/21 00:53:51;;;;;;;33.40;30.30;;;;;;;16.17;73.36;100709.81;4941730;28;100991;-78
2023/05/21 00:56:18;;;;;;;33.53;30.25;;;;;;;16.20;73.47;100714.97;4963309;28;96771;-78
2023/05/21 00:58:44;;;;;;;32.13;29.38;;;;;;;16.15;73.60;100714.38;4953321;28;97187;-78
2023/05/21 01:01:12;;;;;;;32.00;29.17;;;;;;;16.08;73.49;100703.22;4952518;28;98275;-78
2023/05/21 01:03:38;;;;;;;32.67;29.52;;;;;;;15.86;74.30;100702.59;4954300;28;98512;-78
2023/05/21 01:06:05;;;;;;;32.10;29.10;;;;;;;15.89;74.21;100703.28;4944386;28;97281;-78
2023/05/21 01:08:31;;;;;;;33.05;29.70;;;;;;;15.97;73.91;100698.47;4941193;28;97248;-78
2023/05/21 01:10:57;;;;;;;32.05;29.08;;;;;;;15.63;74.41;100680.72;4954134;28;101009;-78
2023/05/21 01:13:25;;;;;;;32.75;29.95;;;;;;;15.76;74.46;100702.16;4927667;28;101205;-78
2023/05/21 01:15:51;;;;;;;33.85;30.63;;;;;;;15.77;74.24;100685.38;4952380;28;97011;-78
2023/05/21 01:18:18;;;;;;;33.80;30.83;;;;;;;15.69;74.54;100690.19;4949854;28;98639;-77
2023/05/21 01:20:46;;;;;;;32.58;29.50;;;;;;;15.65;74.34;100672.69;4982411;28;97494;-77
2023/05/21 01:23:16;;;;;;;32.65;29.98;;;;;;;15.23;75.75;100671.22;4950226;28;100595;-77
2023/05/21 01:25:42;;;;;;;32.33;29.73;;;;;;;15.42;75.43;100673.81;4980071;28;97193;-77
2023/05/21 01:28:08;;;;;;;31.67;28.90;;;;;;;15.48;75.40;100674.41;4960798;28;96842;-77
2023/05/21 01:30:35;;;;;;;30.80;28.13;;;;;;;15.63;74.73;100678.94;4944555;28;102176;-77
2023/05/21 01:33:13;;;;;;;31.50;28.75;;;;;;;15.49;74.89;100677.91;4948476;28;101441;-78
2023/05/21 01:35:45;;;;;;;32.33;29.35;;;;;;;15.52;75.03;100675.97;4963877;28;97452;-78
2023/05/21 01:38:16;;;;;;;32.83;29.98;;;;;;;15.57;75.21;100687.19;4952042;28;96743;-77
2023/05/21 01:40:53;;;;;;;32.42;29.00;;;;;;;15.31;75.26;100682.28;4961104;28;101473;-77
2023/05/21 01:43:19;;;;;;;31.17;28.23;;;;;;;15.29;75.01;100663.84;4924660;28;101667;-78
2023/05/21 01:45:46;;;;;;;29.83;27.35;;;;;;;15.36;75.15;100673.22;4951619;28;97289;-78
2023/05/21 01:48:12;;;;;;;29.58;27.00;;;;;;;15.46;75.19;100683.34;4957203;28;97382;-78
2023/05/21 01:50:40;;;;;;;30.60;28.00;;;;;;;15.47;74.42;100656.78;4973641;28;99439;-78
2023/05/21 01:53:05;;;;;;;30.60;27.85;;;;;;;15.22;75.21;100677.44;4957679;28;100656;-78
2023/05/21 01:55:31;;;;;;;30.17;27.42;;;;;;;15.46;74.78;100664.81;4978549;28;96781;-78
2023/05/21 01:57:58;;;;;;;30.95;28.05;;;;;;;15.20;75.52;100681.94;4962384;28;96856;-78
2023/05/21 02:00:27;;;;;;;30.13;27.60;;;;;;;15.00;75.48;100644.06;4949297;28;97477;-78
2023/05/21 02:02:53;;;;;;;31.27;28.45;;;;;;;15.14;75.91;100670.72;4972022;28;98610;-77
2023/05/21 02:05:18;;;;;;;32.05;28.85;;;;;;;15.20;75.43;100682.81;4928371;28;97160;-77
2023/05/21 02:07:44;;;;;;;29.88;27.17;;;;;;;15.26;75.17;100676.38;4954055;28;97013;-78
2023/05/21 02:10:10;;;;;;;29.38;26.73;;;;;;;15.10;75.64;100679.75;4934389;28;101483;-77
2023/05/21 02:12:36;;;;;;;30.80;27.20;;;;;;;15.18;75.56;100682.00;4949243;28;101394;-78
2023/05/21 02:15:02;;;;;;;29.92;27.42;;;;;;;15.21;75.79;100666.00;4956200;28;97164;-76
2023/05/21 02:17:32;;;;;;;29.65;26.95;;;;;;;15.13;74.85;100645.22;4971481;28;97643;-78
2023/05/21 02:20:10;;;;;;;29.65;26.90;;;;;;;15.19;75.25;100665.22;4962643;28;101342;-78
2023/05/21 02:22:40;;;;;;;28.98;26.58;;;;;;;15.21;74.99;100655.41;4954061;28;101267;-78
2023/05/21 02:25:07;;;;;;;30.75;28.08;;;;;;;15.33;75.00;100678.66;4963912;28;97049;-78
2023/05/21 02:27:35;;;;;;;29.98;26.98;;;;;;;15.24;74.33;100654.41;4945771;28;97949;-77
2023/05/21 02:30:03;;;;;;;30.98;28.08;;;;;;;15.46;74.10;100678.91;4960967;28;101688;-77
2023/05/21 02:32:30;;;;;;;30.90;28.10;;;;;;;15.45;74.29;100666.63;4945611;28;102024;-78
2023/05/21 02:34:57;;;;;;;29.98;27.23;;;;;;;15.30;74.34;100670.88;4957899;28;96883;-78
2023/05/21 02:37:24;;;;;;;29.83;27.30;;;;;;;15.24;74.78;100667.63;4959243;28;97323;-78
2023/05/21 02:39:49;;;;;;;30.27;27.77;;;;;;;15.38;74.43;100667.84;4967367;28;98410;-78
2023/05/21 02:42:15;;;;;;;29.83;27.15;;;;;;;15.05;74.59;100644.72;4937119;28;101633;-78
2023/05/21 02:44:41;;;;;;;28.92;26.23;;;;;;;15.31;74.36;100661.13;4954326;28;96782;-79
2023/05/21 02:47:09;;;;;;;28.70;26.10;;;;;;;15.31;73.84;100639.97;4938492;28;97479;-79
2023/05/21 02:49:35;;;;;;;31.05;28.17;;;;;;;15.36;74.21;100665.28;4940979;28;101760;-78
2023/05/21 02:52:01;;;;;;;29.52;26.77;;;;;;;15.40;73.57;100655.41;4919803;28;101238;-78
2023/05/21 02:54:26;;;;;;;29.42;26.80;;;;;;;15.42;73.48;100652.66;4928205;28;97287;-77
2023/05/21 02:56:52;;;;;;;29.60;26.98;;;;;;;15.43;73.45;100649.09;4932807;28;96932;-77
2023/05/21 02:59:17;;;;;;;29.90;27.30;;;;;;;15.46;73.40;100648.94;4950175;28;102030;-78
2023/05/21 03:01:43;;;;;;;29.70;27.00;;;;;;;15.50;73.16;100653.16;4929987;28;101399;-78
2023/05/21 03:04:09;;;;;;;28.73;26.27;;;;;;;15.44;73.15;100649.00;4948867;28;97330;-78
2023/05/21 03:06:35;;;;;;;29.63;26.48;;;;;;;15.43;73.43;100646.47;4944716;28;97127;-77
2023/05/21 03:09:02;;;;;;;28.30;25.75;;;;;;;15.54;72.95;100650.28;4928352;28;101314;-78
2023/05/21 03:11:28;;;;;;;29.83;26.92;;;;;;;15.47;72.64;100635.63;4958845;28;97972;-77
2023/05/21 03:13:53;;;;;;;29.13;26.73;;;;;;;15.63;72.42;100644.53;4925153;28;96884;-78
2023/05/21 03:16:19;;;;;;;29.92;27.17;;;;;;;15.62;72.65;100649.91;4958112;28;96782;-78
2023/05/21 03:18:44;;;;;;;30.23;27.73;;;;;;;15.59;72.57;100648.28;4938000;28;101442;-78
2023/05/21 03:21:12;;;;;;;28.73;26.33;;;;;;;15.61;72.09;100645.53;4938831;28;97427;-78
2023/05/21 03:23:40;;;;;;;29.17;26.52;;;;;;;15.68;72.36;100654.94;4935361;28;97320;-78
2023/05/21 03:26:06;;;;;;;29.20;26.45;;;;;;;15.72;72.24;100651.19;4935979;28;97106;-78
2023/05/21 03:28:32;;;;;;;29.45;26.55;;;;;;;15.72;72.07;100647.69;4936507;28;102181;-78
2023/05/21 03:30:58;;;;;;;29.02;26.60;;;;;;;15.71;72.02;100648.63;4949799;28;101699;-78
2023/05/21 03:33:32;;;;;;;29.35;26.58;;;;;;;15.75;71.84;100650.19;4949512;28;97247;-78
2023/05/21 03:36:01;;;;;;;29.73;27.23;;;;;;;15.72;72.07;100645.03;4929998;28;97103;-78
2023/05/21 03:38:30;;;;;;;27.98;25.58;;;;;;;15.63;72.13;100654.28;4933520;28;100983;-78
2023/05/21 03:40:56;;;;;;;28.85;26.20;;;;;;;15.89;71.79;100647.69;4943554;28;101318;-78
2023/05/21 03:43:21;;;;;;;28.20;25.50;;;;;;;16.00;70.95;100648.00;4930607;28;96916;-78
2023/05/21 03:45:47;;;;;;;26.58;24.23;;;;;;;15.99;70.73;100648.06;4925173;28;97634;-79
2023/05/21 03:48:31;;;;;;;27.23;25.05;;;;;;;16.02;70.68;100650.56;4959193;28;97037;-78
2023/05/21 03:50:58;;;;;;;26.52;24.42;;;;;;;16.12;70.50;100653.63;4938196;28;99820;-78
2023/05/21 03:53:23;;;;;;;31.52;26.48;;;;;;;16.21;70.54;100645.19;4954559;28;97125;-78
2023/05/21 03:55:53;;;;;;;27.42;25.10;;;;;;;16.26;70.24;100653.72;4935504;28;97181;-78
2023/05/21 03:58:21;;;;;;;26.52;24.40;;;;;;;16.33;70.04;100656.94;4947814;28;101443;-78
2023/05/21 04:00:47;;;;;;;28.75;26.08;;;;;;;16.10;70.13;100634.28;4948381;28;100015;-78
2023/05/21 04:03:13;;;;;;;27.75;25.45;;;;;;;16.37;69.78;100650.53;4945742;28;97318;-78
2023/05/21 04:05:41;;;;;;;26.35;23.77;;;;;;;16.25;70.14;100658.16;4945171;28;97109;-78
2023/05/21 04:08:07;;;;;;;27.48;25.33;;;;;;;16.18;70.24;100653.28;4959443;28;101559;-78
2023/05/21 04:10:33;;;;;;;28.92;26.25;;;;;;;15.92;70.18;100644.03;4941028;28;98576;-79
2023/05/21 04:12:58;;;;;;;27.80;25.23;;;;;;;16.50;69.25;100654.25;4924852;28;96910;-79
2023/05/21 04:15:26;;;;;;;27.83;25.25;;;;;;;16.75;68.60;100648.47;4954144;28;96879;-78
2023/05/21 04:17:53;;;;;;;27.23;24.83;;;;;;;16.68;69.00;100649.75;4938991;28;101527;-78
2023/05/21 04:20:19;;;;;;;26.95;24.73;;;;;;;16.90;67.92;100647.66;4935526;28;101275;-78
2023/05/21 04:22:45;;;;;;;26.55;24.08;;;;;;;16.81;68.03;100645.50;4916227;28;96807;-79
2023/05/21 04:25:11;;;;;;;27.42;25.02;;;;;;;16.73;68.42;100653.84;4935756;28;97077;-78
2023/05/21 04:27:37;;;;;;;26.55;24.05;;;;;;;17.12;67.42;100649.97;4924561;28;101399;-78
2023/05/21 04:30:04;;;;;;;26.98;24.58;;;;;;;16.88;67.31;100641.59;4927970;28;101474;-79
2023/05/21 04:32:33;;;;;;;27.73;25.33;;;;;;;17.16;67.68;100645.34;4944710;28;97360;-78
2023/05/21 04:34:59;;;;;;;26.75;24.15;;;;;;;17.42;66.58;100652.69;4949365;28;97305;-78
2023/05/21 04:37:26;;;;;;;25.38;23.58;;;;;;;17.59;66.53;100642.88;4942846;28;101291;-78
2023/05/21 04:39:54;;;;;;;27.42;24.90;;;;;;;17.67;66.15;100648.63;4946045;28;101401;-78
2023/05/21 04:42:22;;;;;;;26.70;24.58;;;;;;;17.64;65.67;100648.78;4942402;28;96832;-78
2023/05/21 04:44:49;;;;;;;26.95;24.13;;;;;;;17.82;64.78;100633.63;4927789;28;97113;-78
2023/05/21 04:47:17;;;;;;;28.05;25.08;;;;;;;17.93;65.22;100649.75;4948425;28;101257;-78
2023/05/21 04:49:43;;;;;;;25.90;23.73;;;;;;;18.10;64.22;100649.63;4962536;28;101415;-78
2023/05/21 04:52:08;;;;;;;26.88;24.45;;;;;;;18.55;63.40;100647.72;4941318;28;97415;-78
2023/05/21 04:54:35;;;;;;;25.38;23.15;;;;;;;18.58;61.91;100640.53;4974206;28;97208;-78
2023/05/21 04:57:01;;;;;;;26.15;23.85;;;;;;;18.79;62.76;100633.88;4944917;28;102075;-78
2023/05/21 04:59:27;;;;;;;26.15;24.13;;;;;;;18.59;62.41;100651.09;4965340;28;100796;-78
2023/05/21 05:01:52;;;;;;;26.55;24.13;;;;;;;18.60;62.17;100642.16;4943751;28;97440;-78
2023/05/21 05:04:20;;;;;;;27.33;24.92;;;;;;;18.88;61.67;100649.28;4961560;28;97356;-77
2023/05/21 05:06:47;;;;;;;24.35;22.45;;;;;;;19.17;61.46;100642.09;4941553;28;101466;-78
2023/05/21 05:09:14;;;;;;;25.23;23.25;;;;;;;19.42;60.40;100646.66;4956088;28;101535;-78
2023/05/21 05:11:40;;;;;;;25.92;23.60;;;;;;;19.79;59.44;100649.56;4962272;28;96873;-79
2023/05/21 05:14:05;;;;;;;24.75;22.70;;;;;;;19.37;59.79;100642.56;4965401;28;96840;-78
2023/05/21 05:16:31;;;;;;;25.13;22.92;;;;;;;19.75;59.07;100640.09;4938036;28;101958;-78
2023/05/21 05:18:57;;;;;;;26.80;24.48;;;;;;;19.89;58.19;100631.13;4957785;28;98053;-78
2023/05/21 05:21:22;;;;;;;24.60;22.63;;;;;;;20.87;57.04;100642.97;4939791;28;97431;-78
2023/05/21 05:23:48;;;;;;;26.08;23.75;;;;;;;21.29;55.21;100640.78;4942478;28;96849;-79
2023/05/21 05:26:14;;;;;;;24.88;22.60;;;;;;;21.37;54.82;100629.59;4942682;28;101182;-79
2023/05/21 05:28:40;;;;;;;24.75;22.75;;;;;;;22.02;53.17;100623.75;4970018;28;101102;-79
2023/05/21 05:31:05;;;;;;;25.42;23.25;;;;;;;22.93;52.10;100628.16;4965580;28;96921;-79
2023/05/21 05:33:32;;;;;;;25.95;23.45;;;;;;;23.75;50.15;100625.03;4966798;28;96974;-79
2023/05/21 05:35:57;;;;;;;24.42;22.42;;;;;;;24.59;47.67;100615.09;4957751;28;101989;-79
2023/05/21 05:38:23;;;;;;;26.05;23.40;;;;;;;25.74;46.09;100614.56;4979830;28;98951;-79
2023/05/21 05:40:48;;;;;;;24.27;22.35;;;;;;;26.30;44.16;100605.69;4953526;28;97536;-77
2023/05/21 05:43:14;;;;;;;23.35;21.63;;;;;;;27.38;41.17;100614.91;4956358;28;96948;-78
2023/05/21 05:45:40;;;;;;;23.58;21.90;;;;;;;29.53;37.70;100601.38;4965808;28;101334;-78
2023/05/21 05:48:10;;;;;;;24.77;22.88;;;;;;;32.54;33.67;100596.31;4964808;28;100799;-78
2023/05/21 05:50:36;;;;;;;25.80;23.42;;;;;;;33.93;30.77;100604.28;4945720;28;97161;-80
2023/05/21 05:53:02;;;;;;;23.63;21.65;;;;;;;34.97;30.05;100597.94;4957244;28;97243;-80
2023/05/21 05:55:28;;;;;;;24.30;22.13;;;;;;;35.55;28.35;100593.69;4962571;28;101148;-81
2023/05/21 05:57:54;;;;;;;22.88;20.90;;;;;;;36.39;28.14;100597.59;4978290;28;101406;-80
2023/05/21 06:00:20;;;;;;;23.02;21.42;;;;;;;37.45;26.07;100592.66;4952828;28;96897;-80
2023/05/21 06:02:48;;;;;;;23.25;21.48;;;;;;;37.74;25.43;100596.66;4958947;28;97305;-81
2023/05/21 06:05:13;;;;;;;23.23;21.33;;;;;;;39.34;24.08;100582.75;4956159;28;101480;-81
2023/05/21 06:07:40;;;;;;;22.83;21.13;;;;;;;39.14;24.05;100573.97;4940066;28;101607;-80
2023/05/21 06:10:06;;;;;;;22.38;20.33;;;;;;;38.90;24.14;100584.88;4946391;28;96834;-81
2023/05/21 06:12:31;;;;;;;21.73;20.02;;;;;;;40.08;23.32;100573.25;4950168;28;96883;-80
2023/05/21 06:14:57;;;;;;;20.98;19.27;;;;;;;40.42;22.54;100572.38;4951502;28;101397;-81
2023/05/21 06:17:22;;;;;;;21.02;19.40;;;;;;;38.85;23.97;100570.13;4933479;28;101254;-80
2023/05/21 06:19:49;;;;;;;22.52;20.92;;;;;;;38.53;24.03;100566.78;4952387;28;97171;-80
2023/05/21 06:22:14;;;;;;;21.08;19.48;;;;;;;41.16;22.33;100566.97;4953407;28;97487;-81
2023/05/21 06:24:40;;;;;;;21.77;20.27;;;;;;;42.57;21.25;100566.84;4964519;28;103224;-80
2023/05/21 06:27:06;;;;;;;22.30;20.58;;;;;;;40.84;22.29;100569.34;4963623;28;101609;-81
2023/05/21 06:29:32;;;;;;;22.35;20.48;;;;;;;42.07;20.90;100568.69;4959852;28;97377;-81
2023/05/21 06:31:58;;;;;;;20.98;19.17;;;;;;;41.51;20.89;100565.88;4971824;28;97369;-81
2023/05/21 06:34:24;;;;;;;20.77;19.38;;;;;;;42.59;20.30;100556.38;4958482;28;101827;-81
2023/05/21 06:36:51;;;;;;;21.05;19.42;;;;;;;42.54;20.34;100559.94;4973741;28;97333;-80
2023/05/21 06:39:17;;;;;;;21.95;20.02;;;;;;;44.09;19.54;100554.66;4952004;28;97145;-81
2023/05/21 06:41:43;;;;;;;21.30;19.23;;;;;;;43.06;19.91;100558.56;4952302;28;97347;-81
2023/05/21 06:44:26;;;;;;;20.38;18.70;;;;;;;45.14;18.05;100543.38;4968444;28;97880;-83
2023/05/21 06:47:24;;;;;;;20.30;18.73;;;;;;;44.99;17.97;100546.09;4955724;28;99217;-81
2023/05/21 06:49:50;;;;;;;21.48;19.70;;;;;;;45.52;17.95;100555.00;4971507;28;96917;-82
2023/05/21 06:52:15;;;;;;;21.23;19.58;;;;;;;43.48;18.83;100557.81;4939360;28;96881;-82
2023/05/21 06:54:41;;;;;;;20.98;19.17;;;;;;;46.27;17.30;100555.09;4965200;28;101590;-82
2023/05/21 06:57:06;;;;;;;22.02;20.27;;;;;;;45.25;17.38;100553.34;4964366;28;97947;-82
2023/05/21 06:59:32;;;;;;;21.30;19.80;;;;;;;45.59;17.35;100547.25;4983602;28;96714;-82
2023/05/21 07:01:59;;;;;;;21.38;19.75;;;;;;;46.30;16.78;100546.22;4955915;28;97925;-83
2023/05/21 07:04:25;;;;;;;20.20;18.88;;;;;;;45.90;16.92;100534.16;4951492;28;100897;-80
2023/05/21 07:06:51;;;;;;;21.27;19.85;;;;;;;47.26;16.15;100529.22;4982819;28;98243;-82
2023/05/21 07:09:17;;;;;;;22.25;20.50;;;;;;;48.05;15.67;100525.03;4957950;28;96871;-83
2023/05/21 07:11:43;;;;;;;21.30;19.77;;;;;;;47.08;16.44;100530.78;4970635;28;97277;-82
2023/05/21 07:14:09;;;;;;;20.20;18.70;;;;;;;47.61;16.01;100530.84;4956096;28;101719;-82
2023/05/21 07:16:36;;;;;;;20.10;18.67;;;;;;;46.55;16.17;100534.16;4944316;28;101314;-82
2023/05/21 07:19:01;;;;;;;20.55;19.20;;;;;;;46.77;16.35;100542.06;4962029;28;97216;-82
2023/05/21 07:21:27;;;;;;;20.30;18.80;;;;;;;47.65;16.32;100528.28;4954237;28;98135;-81
2023/05/21 07:23:53;;;;;;;20.48;18.88;;;;;;;48.20;15.58;100515.69;4957011;28;101421;-82
2023/05/21 07:26:18;;;;;;;20.95;18.98;;;;;;;49.28;15.25;100514.91;4973143;28;100933;-82
2023/05/21 07:28:44;;;;;;;21.80;20.10;;;;;;;47.38;16.22;100518.53;4990206;28;96767;-83
2023/05/21 07:31:11;;;;;;;20.85;19.17;;;;;;;47.37;15.96;100526.03;4956344;28;97742;-81
2023/05/21 07:33:40;;;;;;;19.55;18.13;;;;;;;48.05;15.56;100527.81;4957100;28;101336;-83
2023/05/21 07:36:08;;;;;;;21.55;19.80;;;;;;;48.22;15.21;100529.31;4955988;28;101396;-82
2023/05/21 07:38:34;;;;;;;21.33;19.67;;;;;;;49.61;15.01;100523.25;4968546;28;96772;-80
2023/05/21 07:40:59;;;;;;;20.45;19.15;;;;;;;51.12;14.04;100515.72;4940082;28;97181;-78
2023/05/21 07:43:25;;;;;;;20.80;19.38;;;;;;;48.97;15.01;100525.75;4949219;28;101521;-80
2023/05/21 07:45:50;;;;;;;20.15;18.75;;;;;;;51.59;13.61;100514.16;4971701;28;101880;-79
2023/05/21 07:48:17;;;;;;;20.08;18.42;;;;;;;49.51;14.66;100518.63;4956233;28;96980;-79
2023/05/21 07:50:55;;;;;;;19.80;18.50;;;;;;;47.37;15.41;100520.50;4958219;28;96915;-79
2023/05/21 07:53:21;;;;;;;20.90;19.10;;;;;;;48.47;15.49;100515.03;4953803;28;100855;-78
2023/05/21 07:55:47;;;;;;;20.55;18.67;;;;;;;45.75;17.03;100518.34;4987544;28;100895;-78
2023/05/21 07:58:18;;;;;;;20.37;18.77;;;;;;;43.55;18.26;100531.66;4969478;28;98253;-79
2023/05/21 08:00:46;;;;;;;20.80;19.23;;;;;;;48.91;15.54;100513.03;4960488;28;97966;-79
2023/05/21 08:03:16;;;;;;;20.63;19.17;;;;;;;48.71;15.08;100512.19;4954431;28;100956;-79
2023/05/21 08:05:49;;;;;;;20.02;18.73;;;;;;;50.24;13.64;100518.84;4956715;28;99916;-80
2023/05/21 08:08:17;;;;;;;19.98;18.58;;;;;;;49.18;14.58;100506.69;4960388;28;97058;-80
2023/05/21 08:10:44;;;;;;;21.50;19.73;;;;;;;51.10;13.23;100512.41;4956710;28;98204;-80
2023/05/21 08:13:15;;;;;;;22.80;21.30;;;;;;;50.40;13.72;100511.81;4956477;28;102111;-80
2023/05/21 08:15:41;;;;;;;21.40;19.77;;;;;;;51.31;12.85;100507.94;4956748;28;99135;-80
2023/05/21 08:18:07;;;;;;;19.98;18.67;;;;;;;49.87;14.06;100501.22;4940385;28;96903;-81
2023/05/21 08:20:33;;;;;;;21.67;20.10;;;;;;;50.75;13.54;100500.97;4946230;28;97225;-80
2023/05/21 08:23:00;;;;;;;21.38;20.00;;;;;;;50.82;13.52;100494.94;4939939;28;101008;-80
2023/05/21 08:25:27;;;;;;;21.67;19.88;;;;;;;50.25;13.88;100498.19;4952313;28;101330;-80
2023/05/21 08:27:55;;;;;;;;;;;;;;;48.98;14.77;100499.53;4973728;28;97514;-80
2023/05/21 08:30:21;;;;;;;20.50;19.25;;;;;;;48.38;15.30;100497.38;4973200;28;96867;-80
2023/05/21 08:32:47;;;;;;;21.95;20.25;;;;;;;47.94;15.35;100508.78;4955042;28;101360;-80
2023/05/21 08:35:15;;;;;;;19.35;18.05;;;;;;;47.43;15.91;100492.69;4957017;28;101163;-79
2023/05/21 08:38:04;;;;;;;19.73;18.23;;;;;;;48.89;15.11;100499.41;4960114;28;97270;-79
2023/05/21 08:40:44;;;;;;;19.65;18.33;;;;;;;49.73;14.48;100489.25;4948059;28;97334;-79
2023/05/21 08:43:13;;;;;;;;;;;;;;;46.94;16.38;100494.47;4947455;28;101378;-79
2023/05/21 08:45:52;;;;;;;21.00;19.40;;;;;;;41.15;20.74;100501.97;4943553;28;101467;-79
2023/05/21 08:48:21;;;;;;;20.20;18.80;;;;;;;38.89;22.61;100511.84;4980225;28;96809;-79
2023/05/21 08:50:56;;;;;;;20.90;19.30;;;;;;;37.69;24.29;100511.59;4972255;28;97758;-81
2023/05/21 08:53:32;;;;;;;19.83;18.45;;;;;;;35.72;26.01;100505.91;4958061;28;98177;-78
2023/05/21 08:55:58;;;;;;;18.85;17.48;;;;;;;34.58;27.01;100513.09;4949975;28;100960;-78
2023/05/21 08:58:42;;;;;;;20.65;18.85;;;;;;;33.34;29.28;100521.09;4944344;28;98198;-78
2023/05/21 09:01:25;;;;;;;21.27;19.77;;;;;;;33.76;28.31;100487.53;4952256;28;97992;-78
2023/05/21 09:04:01;;;;;;;21.77;20.25;;;;;;;30.48;32.23;100515.97;4944102;28;99154;-75
2023/05/21 09:06:32;;;;;;;21.52;19.75;;;;;;;30.44;32.58;100523.59;4956836;28;98339;-75
2023/05/21 09:09:20;;;;;;;22.88;20.85;;;;;;;30.55;33.13;100523.22;4939830;28;97164;-80
2023/05/21 09:11:55;;;;;;;21.60;20.10;;;;;;;30.11;33.26;100501.22;4952974;28;97475;-79
2023/05/21 09:14:45;;;;;;;21.10;19.70;;;;;;;30.41;33.15;100503.13;4951288;28;97742;-80
2023/05/21 09:17:25;;;;;;;20.98;19.13;;;;;;;29.37;34.53;100509.44;4950816;28;101072;-79
2023/05/21 09:20:16;;;;;;;21.40;19.42;;;;;;;28.89;34.44;100519.19;4942191;28;97058;-79
2023/05/21 09:22:52;;;;;;;20.33;18.92;;;;;;;28.29;35.45;100522.84;4957512;28;96829;-78
2023/05/21 09:25:22;;;;;;;21.83;19.85;;;;;;;28.59;34.77;100515.22;4939714;28;101085;-78
2023/05/21 09:27:48;;;;;;;20.77;19.23;;;;;;;28.70;35.25;100524.88;4939872;28;102742;-78
2023/05/21 09:30:16;;;;;;;20.55;18.58;;;;;;;28.51;34.74;100528.69;4955545;28;98085;-79
2023/05/21 09:32:43;;;;;;;20.98;19.58;;;;;;;28.37;35.03;100524.75;4935534;28;97113;-79
2023/05/21 09:35:13;;;;;;;21.40;19.45;;;;;;;28.16;34.98;100512.53;4970206;28;101628;-78
2023/05/21 09:37:48;;;;;;;20.55;18.95;;;;;;;28.43;35.48;100505.25;4955187;28;98053;-78
2023/05/21 09:40:18;;;;;;;21.17;19.10;;;;;;;28.25;35.78;100510.72;4954987;28;97956;-78
2023/05/21 09:42:46;;;;;;;21.35;19.48;;;;;;;28.03;36.67;100501.31;4965918;28;98116;-78
2023/05/21 09:45:17;;;;;;;19.42;17.92;;;;;;;27.97;36.96;100520.84;4948802;28;101463;-77
2023/05/21 09:47:43;;;;;;;;;;;;;;;28.05;37.79;100509.25;4950563;28;101276;-78
2023/05/21 09:50:13;;;;;;;19.60;18.30;;;;;;;27.98;37.04;100509.91;4950894;28;96899;-78
2023/05/21 09:52:39;;;;;;;19.70;18.40;;;;;;;28.04;37.99;100502.16;4936363;28;97162;-77
2023/05/21 09:55:11;;;;;;;20.63;19.23;;;;;;;28.51;37.13;100515.19;4946975;28;97951;-76
2023/05/21 09:57:41;;;;;;;20.00;18.50;;;;;;;28.10;36.46;100506.91;4959488;28;97501;-76
2023/05/21 10:00:08;;;;;;;18.50;17.27;;;;;;;28.09;37.42;100508.75;4952378;28;97401;-76
2023/05/21 10:02:43;;;;;;;20.33;18.50;;;;;;;27.73;38.67;100505.34;4950097;28;98416;-76
2023/05/21 10:05:09;;;;;;;20.42;18.45;;;;;;;27.61;37.66;100475.09;4949851;28;97703;-76
2023/05/21 10:07:35;;;;;;;20.23;18.60;;;;;;;27.46;38.08;100496.41;4968351;28;98571;-76
2023/05/21 10:10:02;;;;;;;20.50;18.88;;;;;;;27.89;37.61;100502.75;4948151;28;98037;-78
2023/05/21 10:12:29;;;;;;;20.00;18.35;;;;;;;27.21;38.08;100489.13;4967901;28;97666;-75
2023/05/21 10:15:07;;;;;;;19.73;18.00;;;;;;;27.47;38.25;100500.78;4964056;28;97431;-75
2023/05/21 10:17:33;;;;;;;18.95;17.45;;;;;;;27.04;37.86;100493.50;4929190;28;98652;-76
2023/05/21 10:19:59;;;;;;;17.60;16.30;;;;;;;27.24;37.96;100497.75;4928230;28;97949;-75
2023/05/21 10:22:25;;;;;;;18.60;17.10;;;;;;;26.90;39.54;100489.47;4943721;28;98015;-76
2023/05/21 10:24:51;;;;;;;20.27;18.40;;;;;;;26.89;39.18;100486.97;4940660;28;98658;-77
2023/05/21 10:27:17;;;;;;;21.05;19.35;;;;;;;27.37;39.98;100483.84;4919104;28;102208;-77
2023/05/21 10:29:44;;;;;;;21.98;20.33;;;;;;;27.77;40.42;100490.53;4943166;28;98183;-76
2023/05/21 10:32:12;;;;;;;18.90;17.38;;;;;;;27.54;39.81;100482.97;4959811;28;97519;-76
2023/05/21 10:34:38;;;;;;;18.83;16.92;;;;;;;27.17;39.44;100490.41;4928536;28;101298;-77
2023/05/21 10:37:03;;;;;;;18.25;16.58;;;;;;;26.41;40.41;100487.13;4946884;28;99282;-76
2023/05/21 10:39:30;;;;;;;19.60;18.08;;;;;;;26.50;39.94;100485.41;4931131;28;97718;-76
2023/05/21 10:42:20;;;;;;;20.20;18.58;;;;;;;26.72;39.72;100476.03;4945544;28;98310;-77
2023/05/21 10:45:12;;;;;;;17.88;16.67;;;;;;;26.31;40.84;100477.41;4928567;28;97595;-76
2023/05/21 10:48:04;;;;;;;19.75;18.45;;;;;;;26.26;40.36;100471.59;4947016;28;98033;-76
2023/05/21 10:50:39;;;;;;;18.70;17.20;;;;;;;26.63;40.24;100466.16;4921070;28;97647;-76
2023/05/21 10:53:28;;;;;;;18.08;16.80;;;;;;;26.27;40.67;100473.28;4949931;28;98012;-76
2023/05/21 10:56:02;;;;;;;19.17;17.70;;;;;;;26.70;40.52;100467.25;4930445;28;98672;-76
2023/05/21 10:58:28;;;;;;;21.60;18.95;;;;;;;26.47;40.05;100461.44;4946040;28;97902;-77
2023/05/21 11:00:54;;;;;;;19.23;17.60;;;;;;;26.21;39.99;100447.88;4948936;28;97709;-76
2023/05/21 11:03:21;;;;;;;18.55;17.25;;;;;;;26.17;40.01;100473.34;4937138;28;97001;-80
2023/05/21 11:05:52;;;;;;;20.58;19.00;;;;;;;25.87;39.70;100475.34;4972475;28;101387;-79
2023/05/21 11:08:34;;;;;;;19.80;18.10;;;;;;;25.63;39.81;100467.75;4972648;28;101232;-79
2023/05/21 11:11:00;;;;;;;19.45;18.10;;;;;;;25.90;40.52;100464.28;4951054;28;97869;-77